Alpine, California
Current Conditions -  °F | °C
As of 10:48 PM on Saturday 20 Dec 2014 (Local Time) from KRNM Reporting Station
Haze Haze  
Wind Chill: 46°   Ceiling: Unl
Heat Index: 46°   Visibility: 2.5mi
Dew Point: 45°   Wind: 3mph
Humidity: 93%   Direction: 280°W
Pressure: 30.17"   Gusts: NA
Location:  32.83°N, 116.75°W
Report Text: KRNM 210648Z 28003KT 2 1/2SM BR CLR 08/07 A3017 RMK AO2
Loading
Personal Weather Stations






























Interactive Weather Map New forecast layout! Learn more

10-Day Weather Forecast

Advertisements
Track Severe Weather on mobile